ADDS METAR Data

Data at: 0529 UTC 20 Sep 2017

METAR for:KSAN (San Diego Intl Arpt, CA, US)
Text:KSAN 200451Z 22004KT 10SM BKN022 OVC028 21/16 A2991 RMK AO2 SLP128 T02110161
Temperature: 21.1°C ( 70°F)
Dewpoint: 16.1°C ( 61°F) [RH = 73%]
Pressure (altimeter):29.91 inches Hg (1013.0 mb) [Sea level pressure: 1012.8 mb]
Winds:from the SW (220 degrees) at 5 MPH (4 knots; 2.1 m/s)
Visibility:10 or more sm (16+ km)
Ceiling:2200 feet AGL
Clouds: broken clouds at 2200 feet AGL, overcast cloud deck at 2800 feet AGL